createdAt,value
2023-04-28T00:00:59.901Z,15.40
2023-04-28T00:03:48.789Z,15.40
2023-04-28T00:06:37.331Z,15.40
2023-04-28T00:09:24.895Z,15.50
2023-04-28T00:12:12.586Z,15.30
2023-04-28T00:15:00.115Z,15.20
2023-04-28T00:17:47.726Z,15.10
2023-04-28T00:20:35.359Z,14.90
2023-04-28T00:23:23.333Z,14.90
2023-04-28T00:26:12.402Z,14.90
2023-04-28T00:28:59.851Z,15.10
2023-04-28T00:31:47.381Z,15.10
2023-04-28T00:34:37.522Z,15.20
2023-04-28T00:37:25.154Z,15.30
2023-04-28T00:40:13.121Z,15.20
2023-04-28T00:43:00.561Z,15.30
2023-04-28T00:45:52.553Z,15.30
2023-04-28T00:48:40.162Z,15.40
2023-04-28T00:51:29.255Z,15.40
2023-04-28T00:54:18.136Z,15.40
2023-04-28T00:57:05.796Z,15.50
2023-04-28T00:59:53.299Z,15.50
2023-04-28T01:02:40.872Z,15.50
2023-04-28T01:05:30.801Z,15.40
2023-04-28T01:08:24.200Z,15.50
2023-04-28T01:11:14.435Z,15.50
2023-04-28T01:14:02.034Z,15.50
2023-04-28T01:16:49.791Z,15.30
2023-04-28T01:19:37.617Z,15.10
2023-04-28T01:22:25.121Z,15.40
2023-04-28T01:25:12.620Z,15.20
2023-04-28T01:28:00.098Z,15.30
2023-04-28T01:30:47.597Z,15.30
2023-04-28T01:33:35.220Z,15.20
2023-04-28T01:36:23.857Z,15.10
2023-04-28T01:39:11.351Z,15.00
2023-04-28T01:41:58.942Z,14.90
2023-04-28T01:44:46.471Z,14.80
2023-04-28T01:47:34.203Z,14.80
2023-04-28T01:50:21.761Z,14.80
2023-04-28T01:53:09.240Z,14.70
2023-04-28T01:55:58.748Z,14.60
2023-04-28T01:58:46.273Z,14.70
2023-04-28T02:01:33.835Z,14.70
2023-04-28T02:04:21.472Z,14.50
2023-04-28T02:07:09.006Z,14.80
2023-04-28T02:09:56.442Z,15.10
2023-04-28T02:12:43.937Z,15.20
2023-04-28T02:15:31.437Z,15.30
2023-04-28T02:18:18.918Z,15.20
2023-04-28T02:21:11.985Z,15.30
2023-04-28T02:23:59.829Z,15.30
2023-04-28T02:26:47.380Z,15.30
2023-04-28T02:29:35.222Z,15.20
2023-04-28T02:32:22.705Z,15.10
2023-04-28T02:35:10.631Z,15.10
2023-04-28T02:37:58.208Z,15.20
2023-04-28T02:40:45.930Z,15.20
2023-04-28T02:43:34.512Z,15.20
2023-04-28T02:46:22.238Z,15.10
2023-04-28T02:49:09.811Z,15.10
2023-04-28T02:51:57.359Z,15.20
2023-04-28T02:54:48.800Z,15.20
2023-04-28T02:57:36.404Z,15.20
2023-04-28T03:00:24.036Z,15.20
2023-04-28T03:03:11.875Z,15.40
2023-04-28T03:05:59.482Z,15.30
2023-04-28T03:08:47.342Z,15.40
2023-04-28T03:11:34.949Z,15.40
2023-04-28T03:14:22.450Z,15.40
2023-04-28T03:17:10.202Z,15.30
2023-04-28T03:19:57.721Z,15.20
2023-04-28T03:22:45.181Z,15.30
2023-04-28T03:25:32.702Z,15.30
2023-04-28T03:28:20.133Z,15.30
2023-04-28T03:31:07.612Z,15.30
2023-04-28T03:33:55.117Z,15.10
2023-04-28T03:36:42.610Z,15.00
2023-04-28T03:39:30.087Z,15.20
2023-04-28T03:42:17.548Z,14.90
2023-04-28T03:45:05.511Z,15.00
2023-04-28T03:47:53.014Z,14.80
2023-04-28T03:50:42.554Z,15.00
2023-04-28T03:53:30.095Z,14.90
2023-04-28T03:56:17.660Z,14.80
2023-04-28T03:59:05.256Z,14.90
2023-04-28T04:01:52.760Z,15.00
2023-04-28T04:04:40.380Z,15.00
2023-04-28T04:07:28.246Z,15.10
2023-04-28T04:10:15.858Z,15.00
2023-04-28T04:13:03.374Z,15.00
2023-04-28T04:15:52.850Z,15.00
2023-04-28T04:18:40.482Z,15.10
2023-04-28T04:21:28.034Z,15.10
2023-04-28T04:24:15.873Z,15.30
2023-04-28T04:27:03.672Z,15.30
2023-04-28T04:29:51.298Z,15.40
2023-04-28T04:32:39.744Z,15.50
2023-04-28T04:35:27.290Z,15.90
2023-04-28T04:38:14.822Z,16.30
2023-04-28T04:41:02.286Z,16.50
2023-04-28T04:43:49.793Z,17.00
2023-04-28T04:46:37.420Z,17.60
2023-04-28T04:49:27.811Z,17.90
2023-04-28T04:52:15.260Z,18.40
2023-04-28T04:55:03.216Z,18.50
2023-04-28T04:57:50.962Z,18.80
2023-04-28T05:00:38.544Z,18.70
2023-04-28T05:03:26.723Z,18.70
2023-04-28T05:06:14.389Z,18.40
2023-04-28T05:09:01.876Z,18.50
2023-04-28T05:11:49.476Z,19.30
2023-04-28T05:14:37.917Z,19.80
2023-04-28T05:17:25.879Z,20.30
2023-04-28T05:20:13.608Z,21.30
2023-04-28T05:23:01.265Z,21.40
2023-04-28T05:25:48.724Z,21.50
2023-04-28T05:28:36.389Z,21.50
2023-04-28T05:31:23.848Z,20.90
2023-04-28T05:34:11.448Z,20.90
2023-04-28T05:36:58.946Z,20.60
2023-04-28T05:39:46.596Z,20.70
2023-04-28T05:42:34.047Z,20.80
2023-04-28T05:45:21.668Z,21.70
2023-04-28T05:48:09.249Z,22.20
2023-04-28T05:50:56.937Z,22.10
2023-04-28T05:53:44.506Z,22.10
2023-04-28T05:56:32.118Z,22.00
2023-04-28T05:59:19.971Z,21.30
2023-04-28T06:02:07.792Z,20.60
2023-04-28T06:04:56.482Z,20.40
2023-04-28T06:07:44.628Z,20.70
2023-04-28T06:10:32.140Z,20.40
2023-04-28T06:13:19.599Z,20.10
2023-04-28T06:16:07.979Z,20.00
2023-04-28T06:18:55.514Z,19.90
2023-04-28T06:21:42.987Z,19.70
2023-04-28T06:24:30.647Z,19.90
2023-04-28T06:27:18.170Z,19.60
2023-04-28T06:30:06.753Z,18.80
2023-04-28T06:32:54.758Z,19.10
2023-04-28T06:35:42.312Z,19.30
2023-04-28T06:38:29.944Z,19.20
2023-04-28T06:41:17.500Z,19.20
2023-04-28T06:44:05.621Z,18.60
2023-04-28T06:46:53.183Z,19.30
2023-04-28T06:49:40.950Z,19.70
2023-04-28T06:52:36.933Z,20.20
2023-04-28T06:55:27.444Z,19.80
2023-04-28T06:58:15.694Z,19.90
2023-04-28T07:01:04.213Z,20.40
2023-04-28T07:03:51.986Z,20.60
2023-04-28T07:06:39.501Z,20.60
2023-04-28T07:09:27.004Z,21.40
2023-04-28T07:12:15.390Z,21.50
2023-04-28T07:15:02.859Z,21.00
2023-04-28T07:17:50.396Z,20.90
2023-04-28T07:20:39.208Z,21.10
2023-04-28T07:23:26.683Z,20.80
2023-04-28T07:26:16.426Z,21.30
2023-04-28T07:29:04.063Z,21.30
2023-04-28T07:31:51.676Z,20.50
2023-04-28T07:34:39.264Z,21.50
2023-04-28T07:37:26.800Z,21.40
2023-04-28T07:40:14.483Z,21.70
2023-04-28T07:43:02.134Z,21.80
2023-04-28T07:45:50.211Z,22.00
2023-04-28T07:48:37.949Z,21.80
2023-04-28T07:51:25.486Z,22.20
2023-04-28T07:54:13.184Z,22.30
2023-04-28T07:57:00.956Z,22.20
2023-04-28T07:59:48.473Z,22.60
2023-04-28T08:02:36.138Z,22.70
2023-04-28T08:05:23.986Z,22.90
2023-04-28T08:08:11.931Z,23.10
2023-04-28T08:10:59.487Z,23.10
2023-04-28T08:13:47.195Z,23.30
2023-04-28T08:16:38.719Z,23.10
2023-04-28T08:19:26.173Z,23.00
2023-04-28T08:22:14.286Z,23.20
2023-04-28T08:25:01.848Z,23.20
2023-04-28T08:27:49.301Z,23.10
2023-04-28T08:30:38.865Z,23.00
2023-04-28T08:33:26.956Z,23.10
2023-04-28T08:36:15.255Z,23.00
2023-04-28T08:39:04.270Z,22.90
2023-04-28T08:41:52.667Z,23.20
2023-04-28T08:44:40.777Z,23.60
2023-04-28T08:47:45.979Z,23.80
2023-04-28T08:50:35.902Z,24.10
2023-04-28T08:53:26.924Z,24.20
2023-04-28T08:56:18.559Z,23.90
2023-04-28T08:59:06.754Z,24.30
2023-04-28T09:01:54.262Z,24.40
2023-04-28T09:04:42.068Z,24.50
2023-04-28T09:07:29.751Z,25.00
2023-04-28T09:10:23.603Z,25.00
2023-04-28T09:13:25.937Z,25.60
2023-04-28T09:16:13.571Z,26.00
2023-04-28T09:19:01.401Z,26.10
2023-04-28T09:21:56.927Z,26.70
2023-04-28T09:24:44.877Z,26.50
2023-04-28T09:27:32.275Z,27.10
2023-04-28T09:30:20.875Z,27.20
2023-04-28T09:33:11.229Z,27.00
2023-04-28T09:35:59.153Z,26.60
2023-04-28T09:38:47.027Z,26.50
2023-04-28T09:41:40.698Z,26.30
2023-04-28T09:44:28.167Z,26.40
2023-04-28T09:47:22.612Z,26.10
2023-04-28T09:50:15.242Z,25.20
2023-04-28T09:53:04.388Z,24.70
2023-04-28T09:55:54.982Z,24.30
2023-04-28T09:58:46.376Z,24.50
2023-04-28T10:01:41.056Z,24.70
2023-04-28T10:04:33.878Z,24.70
2023-04-28T10:07:22.648Z,24.50
2023-04-28T10:10:11.003Z,24.50
2023-04-28T10:12:59.857Z,24.90
2023-04-28T10:15:49.561Z,24.90
2023-04-28T10:18:38.420Z,24.90
2023-04-28T10:21:30.084Z,24.90
2023-04-28T10:24:29.528Z,25.00
2023-04-28T10:27:18.233Z,24.90
2023-04-28T10:30:27.596Z,24.70
2023-04-28T10:33:16.519Z,24.40
2023-04-28T10:36:06.355Z,24.50
2023-04-28T10:39:15.377Z,24.70
2023-04-28T10:42:03.131Z,24.70
2023-04-28T10:44:51.069Z,24.50
2023-04-28T10:48:06.228Z,24.60
2023-04-28T10:51:13.144Z,24.60
2023-04-28T10:54:01.254Z,24.80
2023-04-28T10:57:16.488Z,24.60
2023-04-28T11:00:30.909Z,24.60
2023-04-28T11:03:46.979Z,24.50
2023-04-28T11:06:41.430Z,24.40
2023-04-28T11:09:31.878Z,24.10
2023-04-28T11:12:19.449Z,24.10
2023-04-28T11:15:13.389Z,24.10
2023-04-28T11:18:15.408Z,24.10
2023-04-28T11:21:06.521Z,24.10
2023-04-28T11:23:54.404Z,23.80
2023-04-28T11:26:42.620Z,24.10
2023-04-28T11:29:36.047Z,24.20
2023-04-28T11:32:35.357Z,24.20
2023-04-28T11:35:23.237Z,24.10
2023-04-28T11:38:10.801Z,24.10
2023-04-28T11:40:59.590Z,24.00
2023-04-28T11:43:47.798Z,24.10
2023-04-28T11:46:35.522Z,24.00
2023-04-28T11:49:30.902Z,24.00
2023-04-28T11:52:18.520Z,23.80
2023-04-28T11:55:07.517Z,23.70
2023-04-28T11:58:24.982Z,23.70
2023-04-28T12:01:16.743Z,23.50
2023-04-28T12:04:04.751Z,23.40
2023-04-28T12:07:17.671Z,23.30
2023-04-28T12:10:13.932Z,23.40
2023-04-28T12:13:16.843Z,23.30
2023-04-28T12:16:06.406Z,23.10
2023-04-28T12:19:00.422Z,23.00
2023-04-28T12:22:07.517Z,22.70
2023-04-28T12:25:09.737Z,22.70
2023-04-28T12:28:08.615Z,22.60
2023-04-28T12:31:11.211Z,22.60
2023-04-28T12:33:59.050Z,22.50
2023-04-28T12:36:46.678Z,22.40
2023-04-28T12:39:39.833Z,22.60
2023-04-28T12:42:27.867Z,22.50
2023-04-28T12:45:16.368Z,22.50
2023-04-28T12:48:07.412Z,22.40
2023-04-28T12:50:54.944Z,22.40
2023-04-28T12:53:44.815Z,22.20
2023-04-28T12:56:32.330Z,22.10
2023-04-28T12:59:19.923Z,22.10
2023-04-28T13:02:08.204Z,22.00
2023-04-28T13:04:56.140Z,21.90
2023-04-28T13:07:44.156Z,22.10
2023-04-28T13:10:31.632Z,22.10
2023-04-28T13:13:19.132Z,22.10
2023-04-28T13:16:06.840Z,22.20
2023-04-28T13:18:54.752Z,22.30
2023-04-28T13:21:43.102Z,22.30
2023-04-28T13:24:30.889Z,22.40
2023-04-28T13:27:18.892Z,22.20
2023-04-28T13:30:08.782Z,22.30
2023-04-28T13:32:57.478Z,22.00
2023-04-28T13:35:46.113Z,22.10
2023-04-28T13:38:33.733Z,21.90
2023-04-28T13:41:21.488Z,22.10
2023-04-28T13:44:09.647Z,22.00
2023-04-28T13:46:57.663Z,22.20
2023-04-28T13:49:45.099Z,22.50
2023-04-28T13:52:32.580Z,22.30
2023-04-28T13:55:27.707Z,22.20
2023-04-28T13:58:15.444Z,22.30
2023-04-28T14:01:04.485Z,22.40
2023-04-28T14:03:52.398Z,22.00
2023-04-28T14:06:40.202Z,21.80
2023-04-28T14:09:27.739Z,21.70
2023-04-28T14:12:16.355Z,21.70
2023-04-28T14:15:08.055Z,21.70
2023-04-28T14:17:55.714Z,22.00
2023-04-28T14:20:44.027Z,21.80
2023-04-28T14:23:31.463Z,21.40
2023-04-28T14:26:19.022Z,21.40
2023-04-28T14:29:06.626Z,21.60
2023-04-28T14:31:54.128Z,21.60
2023-04-28T14:34:42.204Z,21.50
2023-04-28T14:37:29.714Z,21.40
2023-04-28T14:40:17.369Z,21.60
2023-04-28T14:43:04.855Z,21.70
2023-04-28T14:45:53.039Z,21.70
2023-04-28T14:48:40.758Z,21.80
2023-04-28T14:51:28.780Z,22.10
2023-04-28T14:54:16.386Z,22.20
2023-04-28T14:57:04.086Z,22.20
2023-04-28T14:59:52.411Z,22.10
2023-04-28T15:02:40.058Z,22.10
2023-04-28T15:05:27.713Z,22.10
2023-04-28T15:08:15.385Z,22.20
2023-04-28T15:11:03.046Z,22.10
2023-04-28T15:13:51.086Z,21.90
2023-04-28T15:16:38.766Z,22.00
2023-04-28T15:19:26.446Z,21.70
2023-04-28T15:22:15.734Z,21.60
2023-04-28T15:25:03.399Z,21.60
2023-04-28T15:27:50.984Z,21.40
2023-04-28T15:30:39.512Z,21.60
2023-04-28T15:33:28.896Z,21.50
2023-04-28T15:36:18.594Z,21.30
2023-04-28T15:39:09.225Z,21.40
2023-04-28T15:41:56.702Z,21.40
2023-04-28T15:44:44.307Z,21.60
2023-04-28T15:47:33.114Z,21.60
2023-04-28T15:50:21.955Z,21.50
2023-04-28T15:53:09.556Z,21.40
2023-04-28T15:56:00.241Z,21.30
2023-04-28T15:58:47.861Z,21.20
2023-04-28T16:01:35.432Z,21.10
2023-04-28T16:04:23.179Z,21.10
2023-04-28T16:07:10.746Z,21.20
2023-04-28T16:09:58.883Z,21.10
2023-04-28T16:12:46.905Z,21.00
2023-04-28T16:15:35.109Z,20.90
2023-04-28T16:18:22.687Z,20.90
2023-04-28T16:21:10.737Z,20.70
2023-04-28T16:23:58.286Z,20.70
2023-04-28T16:26:45.854Z,20.70
2023-04-28T16:29:33.348Z,20.60
2023-04-28T16:32:21.215Z,20.50
2023-04-28T16:35:15.179Z,20.60
2023-04-28T16:38:03.076Z,20.50
2023-04-28T16:40:51.631Z,20.50
2023-04-28T16:43:39.156Z,20.20
2023-04-28T16:46:26.803Z,20.20
2023-04-28T16:49:14.392Z,20.20
2023-04-28T16:52:04.706Z,20.20
2023-04-28T16:54:52.415Z,20.10
2023-04-28T16:57:43.129Z,20.20
2023-04-28T17:00:31.354Z,20.20
2023-04-28T17:03:19.146Z,20.00
2023-04-28T17:06:09.911Z,20.00
2023-04-28T17:09:00.506Z,20.00
2023-04-28T17:11:49.013Z,20.00
2023-04-28T17:14:39.671Z,20.00
2023-04-28T17:17:27.308Z,20.00
2023-04-28T17:20:19.913Z,20.10
2023-04-28T17:23:07.468Z,20.00
2023-04-28T17:25:56.231Z,20.10
2023-04-28T17:28:44.232Z,20.20
2023-04-28T17:31:31.753Z,20.20
2023-04-28T17:34:20.229Z,20.20
2023-04-28T17:37:07.871Z,20.30
2023-04-28T17:39:55.369Z,20.10
2023-04-28T17:42:43.711Z,20.10
2023-04-28T17:45:31.441Z,20.30
2023-04-28T17:48:18.905Z,20.20
2023-04-28T17:51:06.700Z,20.20
2023-04-28T17:53:56.756Z,20.30
2023-04-28T17:56:44.604Z,20.20
2023-04-28T17:59:32.259Z,20.00
2023-04-28T18:02:26.579Z,19.80
2023-04-28T18:05:18.081Z,19.80
2023-04-28T18:08:05.548Z,19.60
2023-04-28T18:10:53.624Z,20.00
2023-04-28T18:13:41.144Z,20.00
2023-04-28T18:16:28.789Z,20.00
2023-04-28T18:19:16.717Z,20.00
2023-04-28T18:22:04.303Z,20.10
2023-04-28T18:24:52.616Z,20.20
2023-04-28T18:27:40.111Z,20.10
2023-04-28T18:30:37.794Z,20.10
2023-04-28T18:33:28.179Z,20.00
2023-04-28T18:36:15.795Z,19.70
2023-04-28T18:39:06.280Z,20.00
2023-04-28T18:41:55.328Z,20.00
2023-04-28T18:44:43.086Z,20.00
2023-04-28T18:47:31.078Z,19.80
2023-04-28T18:50:18.983Z,19.80
2023-04-28T18:53:08.576Z,20.10
2023-04-28T18:55:58.132Z,20.10
2023-04-28T18:58:47.385Z,19.90
2023-04-28T19:01:35.128Z,19.90
2023-04-28T19:04:23.068Z,20.10
2023-04-28T19:07:11.434Z,20.10
2023-04-28T19:09:59.488Z,20.20
2023-04-28T19:12:47.098Z,20.10
2023-04-28T19:15:35.177Z,20.10
2023-04-28T19:18:23.625Z,20.20
2023-04-28T19:21:12.342Z,20.10
2023-04-28T19:23:59.958Z,20.00
2023-04-28T19:26:48.092Z,20.10
2023-04-28T19:29:36.000Z,20.20
2023-04-28T19:32:23.580Z,20.00
2023-04-28T19:35:11.154Z,20.20
2023-04-28T19:37:58.645Z,20.40
2023-04-28T19:40:46.712Z,20.00
2023-04-28T19:43:34.164Z,20.00
2023-04-28T19:46:21.790Z,20.10
2023-04-28T19:49:09.621Z,19.70
2023-04-28T19:51:58.771Z,20.00
2023-04-28T19:54:50.820Z,20.00
2023-04-28T19:57:41.949Z,20.00
2023-04-28T20:00:36.097Z,20.00
2023-04-28T20:03:24.020Z,20.10
2023-04-28T20:06:19.607Z,19.70
2023-04-28T20:09:10.330Z,19.30
2023-04-28T20:11:58.099Z,19.80
2023-04-28T20:14:46.033Z,19.70
2023-04-28T20:17:33.479Z,19.80
2023-04-28T20:20:21.468Z,19.80
2023-04-28T20:23:09.125Z,19.80
2023-04-28T20:25:57.106Z,19.80
2023-04-28T20:28:47.605Z,20.00
2023-04-28T20:31:35.600Z,20.00
2023-04-28T20:34:23.076Z,20.00
2023-04-28T20:37:11.252Z,19.90
2023-04-28T20:39:58.787Z,19.80
2023-04-28T20:42:46.242Z,19.70
2023-04-28T20:45:34.683Z,19.80
2023-04-28T20:48:22.120Z,19.90
2023-04-28T20:51:11.112Z,19.80
2023-04-28T20:53:59.112Z,19.80
2023-04-28T20:56:46.588Z,19.80
2023-04-28T20:59:34.147Z,19.80
2023-04-28T21:02:21.828Z,19.90
2023-04-28T21:05:10.209Z,19.70
2023-04-28T21:07:57.949Z,19.70
2023-04-28T21:10:45.490Z,19.70
2023-04-28T21:13:32.940Z,19.80
2023-04-28T21:16:21.601Z,19.70
2023-04-28T21:19:09.771Z,19.70
2023-04-28T21:21:57.291Z,19.80
2023-04-28T21:24:44.760Z,19.90
2023-04-28T21:27:32.745Z,19.80
2023-04-28T21:30:22.048Z,19.70
2023-04-28T21:33:09.515Z,19.80
2023-04-28T21:36:07.503Z,20.00
2023-04-28T21:38:54.953Z,19.80
2023-04-28T21:41:42.971Z,19.90
2023-04-28T21:44:30.656Z,19.60
2023-04-28T21:47:18.236Z,19.50
2023-04-28T21:50:06.766Z,19.40
2023-04-28T21:52:54.486Z,19.60
2023-04-28T21:55:44.575Z,19.80
2023-04-28T21:58:32.629Z,19.70
2023-04-28T22:01:20.581Z,19.70
2023-04-28T22:04:08.980Z,19.70
2023-04-28T22:06:56.877Z,19.60
2023-04-28T22:09:44.382Z,19.70
2023-04-28T22:12:31.877Z,19.70
2023-04-28T22:15:19.594Z,19.70
2023-04-28T22:18:08.383Z,19.70
2023-04-28T22:20:56.081Z,19.90
2023-04-28T22:23:43.587Z,19.60
2023-04-28T22:26:31.163Z,19.70
2023-04-28T22:29:18.887Z,19.70
2023-04-28T22:32:08.495Z,19.70
2023-04-28T22:34:56.091Z,19.20
2023-04-28T22:37:43.649Z,19.40
2023-04-28T22:40:31.271Z,19.20
2023-04-28T22:43:18.706Z,19.30
2023-04-28T22:46:06.873Z,19.40
2023-04-28T22:48:54.491Z,19.40
2023-04-28T22:51:42.193Z,19.50
2023-04-28T22:54:29.701Z,19.50
2023-04-28T22:57:17.268Z,19.40
2023-04-28T23:00:06.156Z,19.50
2023-04-28T23:02:53.804Z,19.50
2023-04-28T23:05:41.359Z,19.60
2023-04-28T23:08:28.841Z,19.40
2023-04-28T23:11:16.420Z,19.40
2023-04-28T23:14:03.938Z,19.30
2023-04-28T23:16:51.308Z,19.20
2023-04-28T23:19:39.482Z,19.20
2023-04-28T23:22:27.275Z,19.20
2023-04-28T23:25:15.362Z,19.00
2023-04-28T23:28:03.267Z,18.90
2023-04-28T23:30:50.824Z,18.90
2023-04-28T23:33:38.311Z,18.90
2023-04-28T23:36:25.893Z,18.80
2023-04-28T23:39:13.684Z,18.80
2023-04-28T23:42:02.442Z,18.80
2023-04-28T23:44:50.120Z,18.70
2023-04-28T23:47:37.892Z,18.80
2023-04-28T23:50:26.183Z,18.70
2023-04-28T23:53:14.115Z,18.60
2023-04-28T23:56:04.398Z,18.50
2023-04-28T23:58:51.944Z,18.50
